Terminal Aerodrome Forecast
Issued by NWS

Home | Current Version | Previous Version | Text Only | Print | Product List | Glossary On
Versions: 1 2 3 4 5 6 7 8 9 10 11 12 13 14 15 16 17 18
000
FTUS43 KIND 182300
TAFBMG
TAF
KBMG 182320Z 1900/1924 00000KT P6SM SCT060 OVC100
     FM190300 00000KT P6SM BKN020
     FM191000 00000KT P6SM BKN100
     FM191600 36003KT P6SM SCT025 BKN250
      AMD LTD TO CLD VIS AND WIND 1902/1914=

USA.gov is the U.S. government's official web portal to all federal, state and local government web resources and services.